Galena, Kansas
Current Conditions -  °F | °C
As of 4:53 PM on Thursday 18 Dec 2014 (Local Time) from KJLN Reporting Station
Overcast Overcast  
Wind Chill: 33°   Ceiling: 800
Heat Index: 38°   Visibility: 9mi
Dew Point: 36°   Wind: 6mph
Humidity: 93%   Direction: 360°N
Pressure: 30.18"   Gusts: NA
Location:  37.08°N, 94.64°W
Report Text: KJLN 182253Z 36005KT 9SM OVC008 03/02 A3018 RMK AO2 SLP224 T00330022
Loading
Personal Weather Stations






























Interactive Weather Map New forecast layout! Learn more

10-Day Weather Forecast

Advertisements
Track Severe Weather on mobile